Time,TemperatureF,DewpointF,PressureIn,WindDirection,WindDirectionDegrees,WindSpeedMPH,WindSpeedGustMPH,Humidity,HourlyPrecipIn,Conditions,Clouds,dailyrainin,SoftwareType,DateUTC
2013-04-15 07:39:00,53.1,48.4,28.88,ENE,57,0.0,0.0,84,0.00,,BKN110,0.00,VWS V14.01,2013-04-15 11:39:00,
2013-04-15 07:40:00,53.1,48.4,28.88,NNE,13,0.0,0.0,84,0.00,,BKN110,0.00,VWS V14.01,2013-04-15 11:40:00,
2013-04-15 07:45:00,53.1,48.4,28.88,East,82,0.0,0.0,84,0.00,,BKN110,0.00,VWS V14.01,2013-04-15 11:45:00,
2013-04-15 07:50:00,53.2,48.5,28.88,East,82,0.0,0.0,84,0.00,,BKN110,0.00,VWS V14.01,2013-04-15 11:50:00,
2013-04-15 07:55:00,53.2,48.5,28.88,NE,35,3.1,3.1,84,0.00,,BKN110,0.00,VWS V14.01,2013-04-15 11:55:00,
2013-04-15 08:00:00,53.1,48.0,28.88,East,84,0.0,0.0,83,0.04,,BKN110,0.04,VWS V14.01,2013-04-15 12:00:00,
2013-04-15 08:05:00,53.2,48.2,28.88,ESE,102,2.7,2.7,83,0.04,,-RA,0.04,VWS V14.01,2013-04-15 12:05:00,
2013-04-15 08:10:00,53.2,48.2,28.88,East,95,0.0,0.0,83,0.04,,-RA,0.00,VWS V14.01,2013-04-15 12:10:00,
2013-04-15 08:15:00,53.2,48.2,28.88,East,82,0.0,2.2,83,0.04,,-RA,0.04,VWS V14.01,2013-04-15 12:15:00,
2013-04-15 08:20:00,53.2,48.2,28.88,NE,37,2.7,2.7,83,0.08,,-RA,0.08,VWS V14.01,2013-04-15 12:20:00,
2013-04-15 08:25:00,53.2,47.9,28.88,ENE,59,0.0,0.0,82,0.08,,-RA,0.08,VWS V14.01,2013-04-15 12:25:00,
2013-04-15 08:30:00,53.2,47.9,28.88,East,87,0.0,0.0,82,0.08,,-RA,0.08,VWS V14.01,2013-04-15 12:30:00,
2013-04-15 08:35:00,53.2,47.9,28.88,East,92,2.7,2.7,82,0.08,,-RA,0.08,VWS V14.01,2013-04-15 12:35:00,
2013-04-15 08:41:00,53.2,47.6,28.88,ENE,78,0.0,0.0,81,0.08,,-RA,0.08,VWS V14.01,2013-04-15 12:41:00,
2013-04-15 08:46:00,53.2,47.6,28.88,ENE,78,0.0,0.0,81,0.08,,-RA,0.08,VWS V14.01,2013-04-15 12:46:00,
2013-04-15 08:51:00,53.4,47.7,28.88,ENE,78,0.0,0.0,81,0.08,,-RA,0.08,VWS V14.01,2013-04-15 12:51:00,
2013-04-15 08:56:00,53.4,47.7,28.91,ENE,78,0.0,0.0,81,0.08,,-RA,0.08,VWS V14.01,2013-04-15 12:56:00,
2013-04-15 09:01:00,53.4,47.7,28.91,NNE,19,0.0,0.0,81,0.04,,-RA,0.08,VWS V14.01,2013-04-15 13:01:00,
2013-04-15 09:06:00,53.4,47.7,28.91,East,87,0.0,0.0,81,0.04,,-RA,0.08,VWS V14.01,2013-04-15 13:06:00,
2013-04-15 09:11:00,53.4,47.7,28.91,ENE,78,0.0,0.0,81,0.04,,-RA,0.08,VWS V14.01,2013-04-15 13:11:00,
2013-04-15 09:16:00,53.4,47.7,28.91,South,170,0.0,0.0,81,0.04,,-RA,0.08,VWS V14.01,2013-04-15 13:16:00,
2013-04-15 09:21:00,53.4,47.7,28.91,ENE,67,2.2,2.2,81,0.00,,-RA,0.08,VWS V14.01,2013-04-15 13:21:00,
2013-04-15 09:26:00,53.4,47.7,28.91,East,83,0.0,0.0,81,0.00,,-RA,0.08,VWS V14.01,2013-04-15 13:26:00,
2013-04-15 09:31:00,53.4,48.1,28.91,ENE,68,0.0,0.0,82,0.00,,-RA,0.08,VWS V14.01,2013-04-15 13:31:00,
2013-04-15 09:36:00,53.4,47.7,28.91,North,7,3.1,3.6,81,0.00,,-RA,0.08,VWS V14.01,2013-04-15 13:36:00,
2013-04-15 09:41:00,53.4,47.7,28.91,ENE,68,0.0,4.0,81,0.08,,-RA,0.16,VWS V14.01,2013-04-15 13:41:00,
2013-04-15 09:47:00,53.6,47.9,28.91,NE,47,2.7,2.7,81,0.08,,-RA,0.16,VWS V14.01,2013-04-15 13:47:00,
2013-04-15 09:52:00,53.4,47.7,28.91,East,93,3.6,3.6,81,0.08,,-RA,0.16,VWS V14.01,2013-04-15 13:52:00,
2013-04-15 09:57:00,53.6,47.6,28.91,NNE,32,2.2,2.7,80,0.08,,-RA,0.16,VWS V14.01,2013-04-15 13:57:00,
2013-04-15 10:02:00,53.6,47.9,28.91,East,84,3.6,3.6,81,0.08,,OVC029,0.16,VWS V14.01,2013-04-15 14:02:00,
2013-04-15 10:07:00,53.6,47.9,28.91,East,79,4.0,4.9,81,0.08,,OVC029,0.16,VWS V14.01,2013-04-15 14:07:00,
2013-04-15 10:12:00,53.8,47.8,28.91,ENE,65,3.1,3.1,80,0.08,,OVC029,0.16,VWS V14.01,2013-04-15 14:12:00,
2013-04-15 10:18:00,53.8,47.4,28.91,ENE,73,3.1,3.1,79,0.08,,OVC029,0.16,VWS V14.01,2013-04-15 14:18:00,
2013-04-15 10:23:00,54.0,47.3,28.91,East,85,3.6,4.0,78,0.08,,OVC029,0.16,VWS V14.01,2013-04-15 14:23:00,
2013-04-15 10:28:00,53.8,46.4,28.91,ENE,68,4.5,4.5,76,0.08,,OVC029,0.16,VWS V14.01,2013-04-15 14:28:00,
2013-04-15 10:33:00,54.0,46.6,28.91,NNE,26,3.1,3.1,76,0.08,,OVC029,0.16,VWS V14.01,2013-04-15 14:33:00,
2013-04-15 10:38:00,54.1,47.1,28.91,NE,35,2.7,2.7,77,0.08,,OVC029,0.16,VWS V14.01,2013-04-15 14:38:00,
2013-04-15 10:43:00,54.1,47.1,28.91,East,89,0.0,0.0,77,0.00,,OVC029,0.16,VWS V14.01,2013-04-15 14:43:00,
2013-04-15 10:48:00,54.3,47.3,28.91,East,89,0.0,0.0,77,0.00,,OVC029,0.16,VWS V14.01,2013-04-15 14:48:00,
2013-04-15 10:53:00,54.5,48.1,28.91,East,89,0.0,0.0,79,0.00,,OVC029,0.16,VWS V14.01,2013-04-15 14:53:00,
2013-04-15 10:58:00,54.5,48.1,28.91,East,89,0.0,0.0,79,0.00,,OVC029,0.16,VWS V14.01,2013-04-15 14:58:00,
2013-04-15 11:03:00,54.7,48.6,28.91,East,89,0.0,0.0,80,0.00,,OVC013,0.16,VWS V14.01,2013-04-15 15:03:00,
2013-04-15 11:08:00,54.9,48.5,28.91,East,89,0.0,0.0,79,0.00,,OVC013,0.16,VWS V14.01,2013-04-15 15:08:00,
2013-04-15 11:13:00,55.2,49.2,28.91,NNE,31,3.6,3.6,80,0.00,,OVC013,0.16,VWS V14.01,2013-04-15 15:13:00,
2013-04-15 11:18:00,55.0,48.3,28.91,ENE,69,0.0,3.6,78,0.00,,OVC013,0.16,VWS V14.01,2013-04-15 15:18:00,
2013-04-15 11:23:00,54.9,47.5,28.91,NE,44,3.6,5.4,76,0.00,,OVC013,0.16,VWS V14.01,2013-04-15 15:23:00,
2013-04-15 11:28:00,55.0,47.6,28.91,ENE,71,4.0,4.0,76,0.00,,OVC013,0.16,VWS V14.01,2013-04-15 15:28:00,
2013-04-15 11:33:00,55.0,47.3,28.91,ENE,57,2.2,2.2,75,0.00,,-RA,0.16,VWS V14.01,2013-04-15 15:33:00,
2013-04-15 11:38:00,55.2,47.5,28.94,NE,35,3.6,3.6,75,0.00,,-RA,0.16,VWS V14.01,2013-04-15 15:38:00,
2013-04-15 11:43:00,55.2,46.4,28.94,ENE,73,2.7,2.7,72,0.00,,-RA,0.16,VWS V14.01,2013-04-15 15:43:00,
2013-04-15 11:48:00,55.4,46.5,28.94,ENE,69,3.1,3.1,72,0.00,,-RA,0.16,VWS V14.01,2013-04-15 15:48:00,
2013-04-15 11:54:00,55.6,46.7,28.94,East,92,2.7,2.7,72,0.00,,-RA,0.16,VWS V14.01,2013-04-15 15:54:00,
2013-04-15 11:59:00,55.6,46.7,28.94,East,79,3.6,3.6,72,0.00,,-RA,0.16,VWS V14.01,2013-04-15 15:59:00,
2013-04-15 12:04:00,55.6,46.3,28.94,ENE,63,2.2,2.2,71,0.00,,OVC015,0.16,VWS V14.01,2013-04-15 16:04:00,
2013-04-15 12:09:00,55.8,46.1,28.94,ENE,68,2.7,3.6,70,0.00,,OVC015,0.16,VWS V14.01,2013-04-15 16:09:00,
2013-04-15 12:14:00,55.9,46.3,28.94,East,88,0.0,0.0,70,0.00,,OVC015,0.16,VWS V14.01,2013-04-15 16:14:00,
2013-04-15 12:19:00,55.9,45.9,28.94,ENE,75,3.6,3.6,69,0.00,,OVC015,0.16,VWS V14.01,2013-04-15 16:19:00,
2013-04-15 12:24:00,55.9,45.5,28.94,NE,56,0.0,0.0,68,0.00,,OVC015,0.16,VWS V14.01,2013-04-15 16:24:00,
2013-04-15 12:29:00,56.3,45.9,28.94,NE,50,2.7,2.7,68,0.00,,OVC015,0.16,VWS V14.01,2013-04-15 16:29:00,
2013-04-15 12:34:00,56.3,45.5,28.94,NE,56,0.0,2.7,67,0.00,,OVC015,0.16,VWS V14.01,2013-04-15 16:34:00,
2013-04-15 12:39:00,56.3,44.7,28.94,ENE,72,2.2,2.2,65,0.00,,OVC015,0.16,VWS V14.01,2013-04-15 16:39:00,
2013-04-15 12:44:00,56.5,45.3,28.94,NE,54,3.1,3.1,66,0.00,,OVC015,0.16,VWS V14.01,2013-04-15 16:44:00,
2013-04-15 12:49:00,56.7,45.8,28.94,NE,54,3.1,3.1,67,0.00,,OVC015,0.16,VWS V14.01,2013-04-15 16:49:00,
2013-04-15 12:54:00,56.7,45.0,28.94,NNE,32,2.7,3.1,65,0.00,,OVC015,0.16,VWS V14.01,2013-04-15 16:54:00,
2013-04-15 12:59:00,56.7,45.0,28.94,East,82,2.2,2.2,65,0.00,,OVC015,0.16,VWS V14.01,2013-04-15 16:59:00,
2013-04-15 13:04:00,57.0,45.8,28.94,ENE,78,0.0,0.0,66,0.00,,OVC019,0.16,VWS V14.01,2013-04-15 17:04:00,
2013-04-15 13:09:00,57.2,44.7,28.94,ESE,113,0.0,0.0,63,0.00,,OVC019,0.16,VWS V14.01,2013-04-15 17:09:00,
2013-04-15 13:14:00,57.4,43.2,28.94,East,79,0.0,0.0,59,0.00,,OVC019,0.16,VWS V14.01,2013-04-15 17:14:00,
2013-04-15 13:19:00,57.4,43.2,28.94,NNE,26,0.0,0.0,59,0.00,,OVC019,0.16,VWS V14.01,2013-04-15 17:19:00,
2013-04-15 13:21:00,57.6,43.8,28.94,NNE,25,0.0,0.0,60,0.00,,OVC019,0.16,VWS V14.01,2013-04-15 17:21:00,
2013-04-15 13:22:00,57.6,43.4,28.94,NNE,33,0.0,0.0,59,0.00,,OVC019,0.16,VWS V14.01,2013-04-15 17:22:00,
2013-04-15 13:27:00,57.6,42.0,28.94,NNE,28,2.7,2.7,56,0.00,,OVC019,0.16,VWS V14.01,2013-04-15 17:27:00,
2013-04-15 13:32:00,58.1,43.9,28.94,NNE,28,2.7,2.7,59,0.00,,OVC019,0.16,VWS V14.01,2013-04-15 17:32:00,
2013-04-15 13:37:00,58.5,43.3,28.94,NNE,28,2.7,2.7,57,0.00,,OVC019,0.16,VWS V14.01,2013-04-15 17:37:00,
2013-04-15 13:42:00,58.5,41.4,28.94,NNE,28,2.7,2.7,53,0.00,,OVC019,0.16,VWS V14.01,2013-04-15 17:42:00,
2013-04-15 13:47:00,58.3,40.8,28.94,NNE,28,2.7,2.7,52,0.00,,OVC019,0.16,VWS V14.01,2013-04-15 17:47:00,
2013-04-15 13:52:00,58.5,40.9,28.94,NNE,28,2.7,2.7,52,0.00,,OVC019,0.16,VWS V14.01,2013-04-15 17:52:00,
2013-04-15 13:57:00,58.8,42.7,28.94,NNE,28,2.7,2.7,55,0.00,,OVC019,0.16,VWS V14.01,2013-04-15 17:57:00,
2013-04-15 14:03:00,59.4,41.8,28.94,NNE,28,2.7,2.7,52,0.00,,OVC045,0.16,VWS V14.01,2013-04-15 18:03:00,
2013-04-15 14:08:00,59.5,41.4,28.94,NNE,28,2.7,2.7,51,0.00,,OVC045,0.16,VWS V14.01,2013-04-15 18:08:00,
2013-04-15 14:13:00,59.7,42.1,28.94,NNE,28,2.7,2.7,52,0.00,,OVC045,0.16,VWS V14.01,2013-04-15 18:13:00,
2013-04-15 14:18:00,60.1,41.4,28.94,NNE,28,2.7,2.7,50,0.00,,OVC045,0.16,VWS V14.01,2013-04-15 18:18:00,
2013-04-15 14:23:00,60.4,40.7,28.94,NNE,28,2.7,2.7,48,0.00,,OVC045,0.16,VWS V14.01,2013-04-15 18:23:00,
2013-04-15 14:29:00,60.6,41.4,28.94,NNE,28,2.7,2.7,49,0.00,,OVC045,0.16,VWS V14.01,2013-04-15 18:29:00,
2013-04-15 14:30:00,60.4,39.6,28.94,NNE,28,2.7,2.7,46,0.00,,OVC045,0.16,VWS V14.01,2013-04-15 18:30:00,
2013-04-15 14:35:00,60.6,40.3,28.94,NNE,28,2.7,2.7,47,0.00,,OVC045,0.16,VWS V14.01,2013-04-15 18:35:00,
2013-04-15 14:40:00,60.6,40.8,28.94,NNE,28,2.7,2.7,48,0.00,,OVC045,0.16,VWS V14.01,2013-04-15 18:40:00,
2013-04-15 14:45:00,60.4,39.6,28.94,NNE,28,2.7,2.7,46,0.00,,OVC045,0.16,VWS V14.01,2013-04-15 18:45:00,
2013-04-15 14:50:00,60.4,39.0,28.94,NNE,28,2.7,2.7,45,0.00,,OVC045,0.16,VWS V14.01,2013-04-15 18:50:00,
2013-04-15 14:55:00,60.6,40.8,28.94,NNE,28,2.7,2.7,48,0.00,,OVC045,0.16,VWS V14.01,2013-04-15 18:55:00,
2013-04-15 15:01:00,60.6,39.8,28.94,NNE,28,2.7,2.7,46,0.00,,OVC048,0.16,VWS V14.01,2013-04-15 19:01:00,
2013-04-15 15:06:00,60.6,40.3,28.94,NNE,28,2.7,2.7,47,0.00,,OVC048,0.16,VWS V14.01,2013-04-15 19:06:00,
2013-04-15 15:11:00,60.8,39.9,28.91,NNE,28,2.7,2.7,46,0.00,,OVC048,0.16,VWS V14.01,2013-04-15 19:11:00,
2013-04-15 15:16:00,60.8,39.3,28.91,NNE,28,2.7,2.7,45,0.00,,OVC048,0.16,VWS V14.01,2013-04-15 19:16:00,
2013-04-15 15:21:00,60.6,39.8,28.91,NNE,28,2.7,2.7,46,0.00,,OVC048,0.16,VWS V14.01,2013-04-15 19:21:00,
2013-04-15 15:26:00,60.6,39.2,28.91,NNE,28,2.7,2.7,45,0.00,,OVC048,0.16,VWS V14.01,2013-04-15 19:26:00,
2013-04-15 15:31:00,60.4,38.4,28.91,NNE,28,2.7,2.7,44,0.00,,OVC048,0.16,VWS V14.01,2013-04-15 19:31:00,
2013-04-15 15:36:00,60.3,39.4,28.91,NNE,28,2.7,2.7,46,0.00,,OVC048,0.16,VWS V14.01,2013-04-15 19:36:00,
2013-04-15 15:41:00,60.1,39.2,28.91,NNE,28,2.7,2.7,46,0.00,,OVC048,0.16,VWS V14.01,2013-04-15 19:41:00,
2013-04-15 15:46:00,60.1,40.3,28.91,NNE,28,2.7,2.7,48,0.00,,OVC048,0.16,VWS V14.01,2013-04-15 19:46:00,
2013-04-15 15:51:00,59.9,39.6,28.91,NNE,28,2.7,2.7,47,0.00,,OVC048,0.16,VWS V14.01,2013-04-15 19:51:00,
2013-04-15 15:56:00,59.7,40.0,28.91,NNE,28,2.7,2.7,48,0.00,,OVC048,0.16,VWS V14.01,2013-04-15 19:56:00,
2013-04-15 15:57:00,59.7,40.0,28.91,NNE,28,2.7,2.7,48,0.00,,OVC048,0.16,VWS V14.01,2013-04-15 19:57:00,
2013-04-15 15:58:00,59.7,40.0,28.91,NNE,28,2.7,2.7,48,0.00,,OVC048,0.16,VWS V14.01,2013-04-15 19:58:00,
2013-04-15 15:59:00,59.7,39.5,28.91,NNE,28,2.7,2.7,47,0.00,,OVC048,0.16,VWS V14.01,2013-04-15 19:59:00,
2013-04-15 16:01:00,59.7,40.5,28.91,NNE,28,2.7,2.7,49,0.00,,OVC030,0.16,VWS V14.01,2013-04-15 20:01:00,
2013-04-15 16:02:00,59.7,40.5,28.91,NNE,28,2.7,2.7,49,0.00,,OVC030,0.16,VWS V14.01,2013-04-15 20:02:00,
2013-04-15 16:04:00,59.7,41.1,28.91,NNE,28,2.7,2.7,50,0.00,,OVC030,0.16,VWS V14.01,2013-04-15 20:04:00,
2013-04-15 16:09:00,59.7,39.5,28.91,NNE,28,2.7,2.7,47,0.00,,OVC030,0.16,VWS V14.01,2013-04-15 20:09:00,
2013-04-15 16:14:00,59.5,39.8,28.91,NNE,28,2.7,2.7,48,0.00,,OVC030,0.16,VWS V14.01,2013-04-15 20:14:00,
2013-04-15 16:19:00,59.4,39.7,28.91,NNE,28,2.7,2.7,48,0.00,,OVC030,0.16,VWS V14.01,2013-04-15 20:19:00,
2013-04-15 16:24:00,59.4,40.2,28.91,NNE,28,2.7,2.7,49,0.00,,OVC030,0.16,VWS V14.01,2013-04-15 20:24:00,
2013-04-15 16:29:00,59.5,39.8,28.91,NNE,28,2.7,2.7,48,0.00,,OVC030,0.16,VWS V14.01,2013-04-15 20:29:00,
2013-04-15 16:34:00,59.5,40.4,28.91,NNE,28,2.7,2.7,49,0.00,,OVC030,0.16,VWS V14.01,2013-04-15 20:34:00,
2013-04-15 16:39:00,59.7,39.5,28.91,NNE,28,2.7,2.7,47,0.00,,OVC030,0.16,VWS V14.01,2013-04-15 20:39:00,
2013-04-15 16:44:00,59.9,40.2,28.91,NNE,28,2.7,2.7,48,0.00,,OVC030,0.16,VWS V14.01,2013-04-15 20:44:00,
2013-04-15 16:49:00,59.9,39.6,28.91,NNE,28,2.7,2.7,47,0.00,,OVC030,0.16,VWS V14.01,2013-04-15 20:49:00,
2013-04-15 16:54:00,60.3,40.0,28.91,NNE,28,2.7,2.7,47,0.00,,OVC030,0.16,VWS V14.01,2013-04-15 20:54:00,
2013-04-15 16:59:00,60.4,40.1,28.91,NNE,28,2.7,2.7,47,0.00,,OVC030,0.16,VWS V14.01,2013-04-15 20:59:00,
2013-04-15 17:04:00,60.4,39.0,28.91,NNE,28,2.7,2.7,45,0.00,,OVC026,0.16,VWS V14.01,2013-04-15 21:04:00,
2013-04-15 17:09:00,60.4,39.0,28.91,NNE,28,2.7,2.7,45,0.00,,OVC026,0.16,VWS V14.01,2013-04-15 21:09:00,
2013-04-15 17:14:00,60.4,40.1,28.91,NNE,28,2.7,2.7,47,0.00,,OVC026,0.16,VWS V14.01,2013-04-15 21:14:00,
2013-04-15 17:19:00,60.6,40.3,28.91,NNE,28,2.7,2.7,47,0.00,,OVC026,0.16,VWS V14.01,2013-04-15 21:19:00,
2013-04-15 17:25:00,60.6,39.2,28.91,NNE,28,2.7,2.7,45,0.00,,OVC026,0.16,VWS V14.01,2013-04-15 21:25:00,
2013-04-15 17:30:00,60.6,39.2,28.91,NNE,28,2.7,2.7,45,0.00,,OVC026,0.16,VWS V14.01,2013-04-15 21:30:00,
2013-04-15 17:35:00,60.6,38.6,28.91,NNE,28,2.7,2.7,44,0.00,,OVC026,0.16,VWS V14.01,2013-04-15 21:35:00,
2013-04-15 17:40:00,60.6,39.2,28.91,NNE,28,2.7,2.7,45,0.00,,OVC026,0.16,VWS V14.01,2013-04-15 21:40:00,
2013-04-15 17:45:00,60.6,39.8,28.91,NNE,28,2.7,2.7,46,0.00,,OVC026,0.16,VWS V14.01,2013-04-15 21:45:00,
2013-04-15 17:50:00,60.6,39.8,28.91,NNE,28,2.7,2.7,46,0.00,,OVC026,0.16,VWS V14.01,2013-04-15 21:50:00,
2013-04-15 17:55:00,60.6,40.3,28.91,NNE,28,2.7,2.7,47,0.00,,OVC026,0.16,VWS V14.01,2013-04-15 21:55:00,
2013-04-15 18:00:00,60.6,39.8,28.91,NNE,28,2.7,2.7,46,0.00,,OVC026,0.16,VWS V14.01,2013-04-15 22:00:00,
2013-04-15 18:05:00,60.4,39.0,28.91,NNE,28,2.7,2.7,45,0.00,,OVC026,0.16,VWS V14.01,2013-04-15 22:05:00,
2013-04-15 18:10:00,60.4,39.0,28.91,NNE,28,2.7,2.7,45,0.00,,OVC026,0.16,VWS V14.01,2013-04-15 22:10:00,
2013-04-15 18:15:00,60.4,39.6,28.91,NNE,28,2.7,2.7,46,0.00,,OVC026,0.16,VWS V14.01,2013-04-15 22:15:00,
2013-04-15 18:20:00,60.4,39.6,28.91,NNE,28,2.7,2.7,46,0.00,,OVC026,0.16,VWS V14.01,2013-04-15 22:20:00,
2013-04-15 18:25:00,60.4,39.6,28.91,NNE,28,2.7,2.7,46,0.00,,OVC026,0.16,VWS V14.01,2013-04-15 22:25:00,
2013-04-15 18:30:00,60.4,39.6,28.91,NNE,28,2.7,2.7,46,0.00,,OVC026,0.16,VWS V14.01,2013-04-15 22:30:00,
2013-04-15 18:35:00,60.4,39.6,28.91,NNE,28,2.7,2.7,46,0.00,,OVC026,0.16,VWS V14.01,2013-04-15 22:35:00,
2013-04-15 18:40:00,60.3,39.4,28.94,NNE,28,2.7,2.7,46,0.00,,OVC026,0.16,VWS V14.01,2013-04-15 22:40:00,
2013-04-15 18:45:00,60.4,39.6,28.94,NNE,28,2.7,2.7,46,0.00,,OVC026,0.16,VWS V14.01,2013-04-15 22:45:00,
2013-04-15 18:50:00,60.4,39.6,28.94,NNE,28,2.7,2.7,46,0.00,,OVC026,0.16,VWS V14.01,2013-04-15 22:50:00,
2013-04-15 18:55:00,60.4,40.7,28.94,NNE,28,2.7,2.7,48,0.00,,OVC026,0.16,VWS V14.01,2013-04-15 22:55:00,
2013-04-15 19:00:00,60.4,40.1,28.94,NNE,28,2.7,2.7,47,0.00,,OVC026,0.16,VWS V14.01,2013-04-15 23:00:00,
2013-04-15 19:05:00,60.4,40.1,28.94,NNE,28,2.7,2.7,47,0.00,,OVC024,0.16,VWS V14.01,2013-04-15 23:05:00,
2013-04-15 19:10:00,60.4,40.1,28.94,NNE,28,2.7,2.7,47,0.00,,OVC024,0.16,VWS V14.01,2013-04-15 23:10:00,
2013-04-15 19:15:00,60.3,40.0,28.94,NNE,28,2.7,2.7,47,0.00,,OVC024,0.16,VWS V14.01,2013-04-15 23:15:00,
2013-04-15 19:20:00,60.3,39.4,28.94,NNE,28,2.7,2.7,46,0.00,,OVC024,0.16,VWS V14.01,2013-04-15 23:20:00,
2013-04-15 19:25:00,60.3,40.0,28.94,NNE,28,2.7,2.7,47,0.00,,OVC024,0.16,VWS V14.01,2013-04-15 23:25:00,
2013-04-15 19:30:00,60.3,40.0,28.94,NNE,28,2.7,2.7,47,0.00,,OVC024,0.16,VWS V14.01,2013-04-15 23:30:00,
2013-04-15 19:35:00,60.1,40.3,28.94,NNE,28,2.7,2.7,48,0.00,,OVC024,0.16,VWS V14.01,2013-04-15 23:35:00,
2013-04-15 19:40:00,60.1,40.3,28.94,NNE,28,2.7,2.7,48,0.00,,OVC024,0.16,VWS V14.01,2013-04-15 23:40:00,
2013-04-15 19:45:00,59.9,40.2,28.94,NNE,28,2.7,2.7,48,0.00,,OVC024,0.16,VWS V14.01,2013-04-15 23:45:00,
2013-04-15 19:50:00,59.9,40.2,28.94,NNE,28,2.7,2.7,48,0.00,,OVC024,0.16,VWS V14.01,2013-04-15 23:50:00,
2013-04-15 19:55:00,59.9,40.7,28.94,ENE,65,0.0,0.0,49,0.00,,OVC024,0.16,VWS V14.01,2013-04-15 23:55:00,
2013-04-15 20:00:00,59.7,40.5,28.94,ENE,65,0.0,0.0,49,0.00,,OVC026,0.16,VWS V14.01,2013-04-16 00:00:00,
2013-04-15 20:05:00,59.9,40.7,28.94,ENE,65,0.0,0.0,49,0.00,,OVC026,0.16,VWS V14.01,2013-04-16 00:05:00,
2013-04-15 20:10:00,59.9,41.2,28.94,ENE,65,0.0,0.0,50,0.00,,OVC026,0.16,VWS V14.01,2013-04-16 00:10:00,
2013-04-15 20:16:00,59.7,40.5,28.94,NE,55,0.0,0.0,49,0.00,,OVC026,0.16,VWS V14.01,2013-04-16 00:16:00,
2013-04-15 20:21:00,59.7,40.5,28.94,NE,55,0.0,0.0,49,0.00,,OVC026,0.16,VWS V14.01,2013-04-16 00:21:00,
2013-04-15 20:26:00,59.7,40.5,28.94,NE,55,0.0,0.0,49,0.00,,OVC026,0.16,VWS V14.01,2013-04-16 00:26:00,
2013-04-15 20:31:00,59.7,40.5,28.94,NE,55,0.0,0.0,49,0.00,,OVC026,0.16,VWS V14.01,2013-04-16 00:31:00,
2013-04-15 20:36:00,59.7,41.1,28.94,NE,55,0.0,0.0,50,0.00,,OVC026,0.16,VWS V14.01,2013-04-16 00:36:00,
2013-04-15 20:41:00,59.5,40.9,28.97,East,81,2.7,2.7,50,0.00,,OVC026,0.16,VWS V14.01,2013-04-16 00:41:00,
2013-04-15 20:46:00,59.5,40.9,28.97,East,81,2.7,2.7,50,0.00,,OVC026,0.16,VWS V14.01,2013-04-16 00:46:00,
2013-04-15 20:51:00,59.5,40.9,28.97,East,81,2.7,2.7,50,0.00,,OVC026,0.16,VWS V14.01,2013-04-16 00:51:00,
2013-04-15 20:56:00,59.4,41.2,28.97,East,87,0.0,0.0,51,0.00,,OVC026,0.16,VWS V14.01,2013-04-16 00:56:00,
2013-04-15 21:01:00,59.4,41.2,28.97,East,87,0.0,0.0,51,0.00,,OVC028,0.16,VWS V14.01,2013-04-16 01:01:00,
2013-04-15 21:06:00,59.4,41.8,28.97,East,87,0.0,0.0,52,0.00,,OVC028,0.16,VWS V14.01,2013-04-16 01:06:00,
2013-04-15 21:11:00,59.2,42.1,28.97,SE,127,0.0,0.0,53,0.00,,OVC028,0.16,VWS V14.01,2013-04-16 01:11:00,
2013-04-15 21:16:00,59.2,42.6,28.97,SE,127,0.0,0.0,54,0.00,,OVC028,0.16,VWS V14.01,2013-04-16 01:16:00,
2013-04-15 21:21:00,59.0,42.4,28.97,SE,127,0.0,0.0,54,0.00,,OVC028,0.16,VWS V14.01,2013-04-16 01:21:00,
2013-04-15 21:26:00,58.8,42.7,28.97,SE,127,0.0,0.0,55,0.00,,OVC028,0.16,VWS V14.01,2013-04-16 01:26:00,
2013-04-15 21:32:00,58.6,43.9,28.97,SW,219,3.6,3.6,58,0.00,,OVC028,0.16,VWS V14.01,2013-04-16 01:32:00,
2013-04-15 21:37:00,58.5,44.6,28.97,SW,218,4.0,4.0,60,0.00,,OVC028,0.16,VWS V14.01,2013-04-16 01:37:00,
2013-04-15 21:42:00,58.3,44.9,28.97,South,191,3.1,3.1,61,0.00,,OVC028,0.16,VWS V14.01,2013-04-16 01:42:00,
2013-04-15 21:47:00,58.1,44.7,28.97,South,185,0.0,0.0,61,0.00,,OVC028,0.16,VWS V14.01,2013-04-16 01:47:00,
2013-04-15 21:52:00,58.1,44.7,28.97,SSW,203,0.0,0.0,61,0.00,,OVC028,0.16,VWS V14.01,2013-04-16 01:52:00,
2013-04-15 21:57:00,58.1,45.2,28.97,SE,145,0.0,2.2,62,0.00,,OVC028,0.16,VWS V14.01,2013-04-16 01:57:00,
2013-04-15 22:02:00,58.1,45.2,28.97,SSW,196,2.2,2.2,62,0.00,,OVC055,0.16,VWS V14.01,2013-04-16 02:02:00,
2013-04-15 22:07:00,58.1,45.2,28.97,SSW,196,2.2,2.2,62,0.00,,OVC055,0.16,VWS V14.01,2013-04-16 02:07:00,
2013-04-15 22:12:00,58.1,45.2,28.97,SSW,196,2.2,2.2,62,0.00,,OVC055,0.16,VWS V14.01,2013-04-16 02:12:00,
2013-04-15 22:17:00,58.1,45.2,28.97,SSW,196,2.2,2.2,62,0.00,,OVC055,0.16,VWS V14.01,2013-04-16 02:17:00,
2013-04-15 22:22:00,58.1,45.2,28.97,SSW,196,2.2,2.2,62,0.00,,OVC055,0.16,VWS V14.01,2013-04-16 02:22:00,
2013-04-15 22:27:00,58.1,44.7,28.97,SSW,196,2.2,2.2,61,0.00,,OVC055,0.16,VWS V14.01,2013-04-16 02:27:00,
2013-04-15 22:32:00,58.1,44.7,28.97,SSW,196,2.2,2.2,61,0.00,,OVC055,0.16,VWS V14.01,2013-04-16 02:32:00,
2013-04-15 22:37:00,58.1,44.7,29.00,SSW,196,2.2,2.2,61,0.00,,OVC055,0.16,VWS V14.01,2013-04-16 02:37:00,
2013-04-15 22:42:00,58.1,44.7,29.00,SSW,196,2.2,2.2,61,0.00,,OVC055,0.16,VWS V14.01,2013-04-16 02:42:00,
2013-04-15 22:47:00,58.1,44.7,29.00,SSW,196,2.2,2.2,61,0.00,,OVC055,0.16,VWS V14.01,2013-04-16 02:47:00,
2013-04-15 22:52:00,58.1,44.7,29.00,SSW,196,2.2,2.2,61,0.00,,OVC055,0.16,VWS V14.01,2013-04-16 02:52:00,
2013-04-15 22:57:00,58.1,44.7,29.00,SSW,196,2.2,2.2,61,0.00,,OVC055,0.16,VWS V14.01,2013-04-16 02:57:00,
2013-04-15 23:02:00,58.1,44.7,29.00,SSW,196,2.2,2.2,61,0.00,,OVC016,0.16,VWS V14.01,2013-04-16 03:02:00,